sensor_id;sensor_type;location;lat;lon;timestamp;pressure;altitude;pressure_sealevel;temperature;humidity
72548;BME280;60570;50.848;6.776;2024-02-16T00:01:02;100038.00;;;13.14;73.00
72548;BME280;60570;50.848;6.776;2024-02-16T00:02:03;100033.59;;;13.13;73.03
72548;BME280;60570;50.848;6.776;2024-02-16T00:03:05;100040.00;;;13.13;73.04
72548;BME280;60570;50.848;6.776;2024-02-16T00:04:06;100045.22;;;13.15;72.93
72548;BME280;60570;50.848;6.776;2024-02-16T00:05:08;100037.66;;;13.15;73.09
72548;BME280;60570;50.848;6.776;2024-02-16T00:06:11;100043.25;;;13.15;73.03
72548;BME280;60570;50.848;6.776;2024-02-16T00:07:13;100040.00;;;13.13;73.17
72548;BME280;60570;50.848;6.776;2024-02-16T00:08:13;100048.72;;;13.12;73.01
72548;BME280;60570;50.848;6.776;2024-02-16T00:09:16;100038.75;;;13.11;73.08
72548;BME280;60570;50.848;6.776;2024-02-16T00:10:17;100041.91;;;13.09;73.08
72548;BME280;60570;50.848;6.776;2024-02-16T00:11:19;100046.28;;;13.10;73.38
72548;BME280;60570;50.848;6.776;2024-02-16T00:12:21;100037.56;;;13.12;73.22
72548;BME280;60570;50.848;6.776;2024-02-16T00:13:22;100043.94;;;13.12;73.20
72548;BME280;60570;50.848;6.776;2024-02-16T00:14:24;100048.72;;;13.12;73.29
72548;BME280;60570;50.848;6.776;2024-02-16T00:15:25;100042.69;;;13.10;73.28
72548;BME280;60570;50.848;6.776;2024-02-16T00:16:26;100042.34;;;13.11;72.77
72548;BME280;60570;50.848;6.776;2024-02-16T00:17:27;100038.00;;;13.14;73.16
72548;BME280;60570;50.848;6.776;2024-02-16T00:18:29;100038.00;;;13.14;72.94
72548;BME280;60570;50.848;6.776;2024-02-16T00:19:29;100040.00;;;13.13;73.03
72548;BME280;60570;50.848;6.776;2024-02-16T00:20:30;100045.13;;;13.11;73.01
72548;BME280;60570;50.848;6.776;2024-02-16T00:21:32;100037.56;;;13.12;73.08
72548;BME280;60570;50.848;6.776;2024-02-16T00:22:32;100037.56;;;13.12;73.14
72548;BME280;60570;50.848;6.776;2024-02-16T00:23:34;100033.88;;;13.08;73.02
72548;BME280;60570;50.848;6.776;2024-02-16T00:24:36;100040.72;;;13.10;73.06
72548;BME280;60570;50.848;6.776;2024-02-16T00:25:38;100035.94;;;13.11;73.09
72548;BME280;60570;50.848;6.776;2024-02-16T00:26:40;100041.91;;;13.09;73.08
72548;BME280;60570;50.848;6.776;2024-02-16T00:27:43;100040.25;;;13.08;73.25
72548;BME280;60570;50.848;6.776;2024-02-16T00:28:44;100040.25;;;13.08;73.24
72548;BME280;60570;50.848;6.776;2024-02-16T00:29:46;100033.53;;;13.09;73.15
72548;BME280;60570;50.848;6.776;2024-02-16T00:30:47;100041.16;;;13.12;73.25
72548;BME280;60570;50.848;6.776;2024-02-16T00:31:49;100040.34;;;13.12;73.19
72548;BME280;60570;50.848;6.776;2024-02-16T00:32:50;100035.56;;;13.12;73.00
72548;BME280;60570;50.848;6.776;2024-02-16T00:33:53;100044.75;;;13.13;73.07
72548;BME280;60570;50.848;6.776;2024-02-16T00:34:53;100041.53;;;13.11;72.96
72548;BME280;60570;50.848;6.776;2024-02-16T00:35:55;100036.66;;;13.08;73.35
72548;BME280;60570;50.848;6.776;2024-02-16T00:36:56;100049.06;;;13.10;73.14
72548;BME280;60570;50.848;6.776;2024-02-16T00:37:57;100041.53;;;13.11;73.15
72548;BME280;60570;50.848;6.776;2024-02-16T00:38:58;100032.78;;;13.12;73.02
72548;BME280;60570;50.848;6.776;2024-02-16T00:40:02;100042.69;;;13.10;73.10
72548;BME280;60570;50.848;6.776;2024-02-16T00:41:03;100038.38;;;13.12;72.95
72548;BME280;60570;50.848;6.776;2024-02-16T00:42:05;100034.31;;;13.10;73.24
72548;BME280;60570;50.848;6.776;2024-02-16T00:43:06;100045.47;;;13.10;73.14
72548;BME280;60570;50.848;6.776;2024-02-16T00:44:08;100039.09;;;13.09;73.30
72548;BME280;60570;50.848;6.776;2024-02-16T00:45:09;100039.09;;;13.09;73.13
72548;BME280;60570;50.848;6.776;2024-02-16T00:46:10;100035.50;;;13.09;73.14
72548;BME280;60570;50.848;6.776;2024-02-16T00:47:11;100039.91;;;13.10;73.25
72548;BME280;60570;50.848;6.776;2024-02-16T00:48:15;100037.56;;;13.12;72.83
72548;BME280;60570;50.848;6.776;2024-02-16T00:49:16;100053.56;;;13.15;73.45
72548;BME280;60570;50.848;6.776;2024-02-16T00:50:17;100051.94;;;13.14;72.92
72548;BME280;60570;50.848;6.776;2024-02-16T00:51:18;100048.38;;;13.13;73.40
72548;BME280;60570;50.848;6.776;2024-02-16T00:52:19;100049.59;;;13.16;73.10
72548;BME280;60570;50.848;6.776;2024-02-16T00:53:20;100046.03;;;13.15;73.17
72548;BME280;60570;50.848;6.776;2024-02-16T00:54:22;100053.56;;;13.15;73.24
72548;BME280;60570;50.848;6.776;2024-02-16T00:55:24;100056.38;;;13.15;73.03
72548;BME280;60570;50.848;6.776;2024-02-16T00:56:25;100051.50;;;13.12;73.00
72548;BME280;60570;50.848;6.776;2024-02-16T00:57:26;100046.38;;;13.14;73.12
72548;BME280;60570;50.848;6.776;2024-02-16T00:58:28;100045.59;;;13.13;73.02
72548;BME280;60570;50.848;6.776;2024-02-16T00:59:28;100048.38;;;13.13;73.04
72548;BME280;60570;50.848;6.776;2024-02-16T01:00:30;100049.97;;;13.14;73.12
72548;BME280;60570;50.848;6.776;2024-02-16T01:01:31;100049.16;;;13.14;73.21
72548;BME280;60570;50.848;6.776;2024-02-16T01:02:32;100045.59;;;13.13;73.10
72548;BME280;60570;50.848;6.776;2024-02-16T01:03:34;100059.88;;;13.12;73.39
72548;BME280;60570;50.848;6.776;2024-02-16T01:04:34;100050.25;;;13.09;73.00
72548;BME280;60570;50.848;6.776;2024-02-16T01:05:36;100051.50;;;13.12;73.09
72548;BME280;60570;50.848;6.776;2024-02-16T01:06:37;100048.00;;;13.15;73.05
72548;BME280;60570;50.848;6.776;2024-02-16T01:07:38;100046.81;;;13.16;72.84
72548;BME280;60570;50.848;6.776;2024-02-16T01:08:40;100050.41;;;13.16;73.01
72548;BME280;60570;50.848;6.776;2024-02-16T01:09:41;100046.81;;;13.16;73.00
72548;BME280;60570;50.848;6.776;2024-02-16T01:10:43;100046.44;;;13.17;72.83
72548;BME280;60570;50.848;6.776;2024-02-16T01:11:45;100046.88;;;13.19;72.98
72548;BME280;60570;50.848;6.776;2024-02-16T01:12:46;100045.22;;;13.15;73.06
72548;BME280;60570;50.848;6.776;2024-02-16T01:13:47;100043.56;;;13.14;73.11
72548;BME280;60570;50.848;6.776;2024-02-16T01:14:48;100038.44;;;13.16;73.11
72548;BME280;60570;50.848;6.776;2024-02-16T01:15:50;100033.31;;;13.18;72.94
72548;BME280;60570;50.848;6.776;2024-02-16T01:16:50;100033.75;;;13.20;72.88
72548;BME280;60570;50.848;6.776;2024-02-16T01:17:52;100030.97;;;13.20;72.84
72548;BME280;60570;50.848;6.776;2024-02-16T01:18:53;100037.34;;;13.20;72.82
72548;BME280;60570;50.848;6.776;2024-02-16T01:19:54;100033.75;;;13.20;72.80
72548;BME280;60570;50.848;6.776;2024-02-16T01:20:55;100038.06;;;13.17;73.01
72548;BME280;60570;50.848;6.776;2024-02-16T01:21:57;100033.59;;;13.13;73.00
72548;BME280;60570;50.848;6.776;2024-02-16T01:22:59;100035.22;;;13.14;72.92
72548;BME280;60570;50.848;6.776;2024-02-16T01:24:01;100031.97;;;13.12;73.06
72548;BME280;60570;50.848;6.776;2024-02-16T01:25:01;100031.19;;;13.11;73.53
72548;BME280;60570;50.848;6.776;2024-02-16T01:26:04;100032.78;;;13.12;73.12
72548;BME280;60570;50.848;6.776;2024-02-16T01:27:05;100037.56;;;13.12;73.19
72548;BME280;60570;50.848;6.776;2024-02-16T01:28:07;100021.63;;;13.12;73.17
72548;BME280;60570;50.848;6.776;2024-02-16T01:29:07;100030.00;;;13.12;73.26
72548;BME280;60570;50.848;6.776;2024-02-16T01:30:09;100025.25;;;13.13;73.19
72548;BME280;60570;50.848;6.776;2024-02-16T01:31:11;100026.78;;;13.10;73.13
72548;BME280;60570;50.848;6.776;2024-02-16T01:32:12;100027.13;;;13.09;73.42
72548;BME280;60570;50.848;6.776;2024-02-16T01:33:14;100021.13;;;13.07;73.21
72548;BME280;60570;50.848;6.776;2024-02-16T01:34:16;100019.59;;;13.09;73.32
72548;BME280;60570;50.848;6.776;2024-02-16T01:35:16;100017.59;;;13.10;73.40
72548;BME280;60570;50.848;6.776;2024-02-16T01:36:18;100016.34;;;13.07;73.34
72548;BME280;60570;50.848;6.776;2024-02-16T01:37:19;100016.69;;;13.06;73.30
72548;BME280;60570;50.848;6.776;2024-02-16T01:38:21;100023.09;;;13.06;73.56
72548;BME280;60570;50.848;6.776;2024-02-16T01:39:23;100016.69;;;13.06;73.59
72548;BME280;60570;50.848;6.776;2024-02-16T01:40:26;100015.91;;;13.05;73.58
72548;BME280;60570;50.848;6.776;2024-02-16T01:41:28;100014.72;;;13.06;73.39
72548;BME280;60570;50.848;6.776;2024-02-16T01:42:30;100013.56;;;13.07;73.74
72548;BME280;60570;50.848;6.776;2024-02-16T01:43:31;100012.69;;;13.03;73.45
72548;BME280;60570;50.848;6.776;2024-02-16T01:44:33;100018.69;;;13.05;73.92
72548;BME280;60570;50.848;6.776;2024-02-16T01:45:33;100008.44;;;13.09;73.46
72548;BME280;60570;50.848;6.776;2024-02-16T01:46:35;100015.16;;;13.08;73.58
72548;BME280;60570;50.848;6.776;2024-02-16T01:47:36;100016.81;;;13.09;73.43
72548;BME280;60570;50.848;6.776;2024-02-16T01:48:38;100009.22;;;13.10;73.64
72548;BME280;60570;50.848;6.776;2024-02-16T01:49:40;100008.44;;;13.09;73.48
72548;BME280;60570;50.848;6.776;2024-02-16T01:50:42;100012.81;;;13.10;73.43
72548;BME280;60570;50.848;6.776;2024-02-16T01:51:44;100015.91;;;13.05;73.67
72548;BME280;60570;50.848;6.776;2024-02-16T01:52:47;100017.97;;;13.08;73.56
72548;BME280;60570;50.848;6.776;2024-02-16T01:53:48;100020.75;;;13.08;73.75
72548;BME280;60570;50.848;6.776;2024-02-16T01:54:50;100022.81;;;13.11;73.69
72548;BME280;60570;50.848;6.776;2024-02-16T01:55:51;100020.47;;;13.13;73.45
72548;BME280;60570;50.848;6.776;2024-02-16T01:56:55;100022.00;;;13.11;73.71
72548;BME280;60570;50.848;6.776;2024-02-16T01:57:57;100019.22;;;13.11;73.49
72548;BME280;60570;50.848;6.776;2024-02-16T01:58:59;100023.97;;;13.10;73.88
72548;BME280;60570;50.848;6.776;2024-02-16T02:00:00;100024.78;;;13.11;73.67
72548;BME280;60570;50.848;6.776;2024-02-16T02:01:01;100028.75;;;13.10;73.50
72548;BME280;60570;50.848;6.776;2024-02-16T02:02:02;100024.34;;;13.09;73.74
72548;BME280;60570;50.848;6.776;2024-02-16T02:03:04;100026.41;;;13.12;73.84
72548;BME280;60570;50.848;6.776;2024-02-16T02:04:05;100034.44;;;13.13;72.96
72548;BME280;60570;50.848;6.776;2024-02-16T02:05:07;100035.22;;;13.14;73.39
72548;BME280;60570;50.848;6.776;2024-02-16T02:06:08;100034.06;;;13.15;73.26
72548;BME280;60570;50.848;6.776;2024-02-16T02:07:13;100032.06;;;13.15;73.43
72548;BME280;60570;50.848;6.776;2024-02-16T02:08:14;100037.28;;;13.17;73.26
72548;BME280;60570;50.848;6.776;2024-02-16T02:09:16;100036.84;;;13.15;73.35
72548;BME280;60570;50.848;6.776;2024-02-16T02:10:16;100035.22;;;13.14;73.40
72548;BME280;60570;50.848;6.776;2024-02-16T02:11:18;100034.75;;;13.12;73.36
72548;BME280;60570;50.848;6.776;2024-02-16T02:12:20;100031.91;;;13.08;73.68
72548;BME280;60570;50.848;6.776;2024-02-16T02:13:22;100030.75;;;13.09;73.58
72548;BME280;60570;50.848;6.776;2024-02-16T02:14:23;100035.94;;;13.11;73.58
72548;BME280;60570;50.848;6.776;2024-02-16T02:15:26;100027.50;;;13.07;73.72
72548;BME280;60570;50.848;6.776;2024-02-16T02:16:27;100027.94;;;13.09;73.72
72548;BME280;60570;50.848;6.776;2024-02-16T02:17:28;100018.41;;;13.10;73.60
72548;BME280;60570;50.848;6.776;2024-02-16T02:18:29;100031.53;;;13.10;73.58
72548;BME280;60570;50.848;6.776;2024-02-16T02:19:31;100031.09;;;13.08;73.71
72548;BME280;60570;50.848;6.776;2024-02-16T02:20:31;100031.09;;;13.08;73.90
72548;BME280;60570;50.848;6.776;2024-02-16T02:21:34;100028.28;;;13.08;73.92
72548;BME280;60570;50.848;6.776;2024-02-16T02:22:36;100021.94;;;13.07;73.92
72548;BME280;60570;50.848;6.776;2024-02-16T02:23:38;100026.31;;;13.08;73.80
72548;BME280;60570;50.848;6.776;2024-02-16T02:24:39;100019.22;;;13.11;73.85
72548;BME280;60570;50.848;6.776;2024-02-16T02:25:40;100016.81;;;13.09;73.68
72548;BME280;60570;50.848;6.776;2024-02-16T02:26:41;100019.22;;;13.11;73.80
72548;BME280;60570;50.848;6.776;2024-02-16T02:27:43;100018.69;;;13.05;73.93
72548;BME280;60570;50.848;6.776;2024-02-16T02:28:43;100017.97;;;13.08;73.98
72548;BME280;60570;50.848;6.776;2024-02-16T02:29:46;100013.56;;;13.07;73.94
72548;BME280;60570;50.848;6.776;2024-02-16T02:30:46;100017.97;;;13.08;73.84
72548;BME280;60570;50.848;6.776;2024-02-16T02:31:47;100015.97;;;13.09;73.78
72548;BME280;60570;50.848;6.776;2024-02-16T02:32:50;100015.16;;;13.08;73.83
72548;BME280;60570;50.848;6.776;2024-02-16T02:33:50;100021.63;;;13.12;73.69
72548;BME280;60570;50.848;6.776;2024-02-16T02:34:52;100020.47;;;13.13;73.79
72548;BME280;60570;50.848;6.776;2024-02-16T02:35:53;100024.06;;;13.14;73.59
72548;BME280;60570;50.848;6.776;2024-02-16T02:36:55;100018.03;;;13.12;73.64
72548;BME280;60570;50.848;6.776;2024-02-16T02:37:57;100019.22;;;13.11;73.65
72548;BME280;60570;50.848;6.776;2024-02-16T02:38:58;100025.94;;;13.10;73.73
72548;BME280;60570;50.848;6.776;2024-02-16T02:39:59;100027.22;;;13.12;73.78
72548;BME280;60570;50.848;6.776;2024-02-16T02:41:00;100016.88;;;13.13;73.83
72548;BME280;60570;50.848;6.776;2024-02-16T02:42:02;100018.13;;;13.15;73.64
72548;BME280;60570;50.848;6.776;2024-02-16T02:43:03;100015.34;;;13.15;73.61
72548;BME280;60570;50.848;6.776;2024-02-16T02:44:06;100009.66;;;13.12;73.67
72548;BME280;60570;50.848;6.776;2024-02-16T02:45:07;100010.03;;;13.10;73.55
72548;BME280;60570;50.848;6.776;2024-02-16T02:46:14;100016.81;;;13.09;73.57
72548;BME280;60570;50.848;6.776;2024-02-16T02:47:15;100010.84;;;13.11;73.77
72548;BME280;60570;50.848;6.776;2024-02-16T02:48:17;100015.25;;;13.12;73.72
72548;BME280;60570;50.848;6.776;2024-02-16T02:49:18;100015.63;;;13.10;73.79
72548;BME280;60570;50.848;6.776;2024-02-16T02:50:20;100014.47;;;13.11;73.94
72548;BME280;60570;50.848;6.776;2024-02-16T02:51:20;100015.25;;;13.12;73.83
72548;BME280;60570;50.848;6.776;2024-02-16T02:52:22;100022.09;;;13.14;73.59
72548;BME280;60570;50.848;6.776;2024-02-16T02:53:24;100018.91;;;13.16;73.74
72548;BME280;60570;50.848;6.776;2024-02-16T02:54:26;100014.91;;;13.13;73.71
72548;BME280;60570;50.848;6.776;2024-02-16T02:55:27;100022.44;;;13.13;73.83
72548;BME280;60570;50.848;6.776;2024-02-16T02:56:29;100017.31;;;13.15;73.93
72548;BME280;60570;50.848;6.776;2024-02-16T02:57:29;100021.25;;;13.14;73.82
72548;BME280;60570;50.848;6.776;2024-02-16T02:58:30;100021.63;;;13.12;73.84
72548;BME280;60570;50.848;6.776;2024-02-16T02:59:32;100013.63;;;13.11;74.06
72548;BME280;60570;50.848;6.776;2024-02-16T03:00:32;100017.59;;;13.10;73.82
72548;BME280;60570;50.848;6.776;2024-02-16T03:01:35;100012.38;;;13.08;74.12
72548;BME280;60570;50.848;6.776;2024-02-16T03:02:36;100010.41;;;13.09;74.06
72548;BME280;60570;50.848;6.776;2024-02-16T03:03:39;100011.22;;;13.09;74.04
72548;BME280;60570;50.848;6.776;2024-02-16T03:04:39;100007.63;;;13.09;74.12
72548;BME280;60570;50.848;6.776;2024-02-16T03:05:42;100014.34;;;13.08;74.17
72548;BME280;60570;50.848;6.776;2024-02-16T03:06:42;100009.97;;;13.07;74.20
72548;BME280;60570;50.848;6.776;2024-02-16T03:07:44;100014.78;;;13.10;73.99
72548;BME280;60570;50.848;6.776;2024-02-16T03:08:46;100012.44;;;13.12;74.06
72548;BME280;60570;50.848;6.776;2024-02-16T03:09:48;100006.09;;;13.11;74.02
72548;BME280;60570;50.848;6.776;2024-02-16T03:10:49;100000.50;;;13.11;74.06
72548;BME280;60570;50.848;6.776;2024-02-16T03:11:50;100000.97;;;13.13;73.95
72548;BME280;60570;50.848;6.776;2024-02-16T03:12:51;99998.94;;;13.14;73.97
72548;BME280;60570;50.848;6.776;2024-02-16T03:13:52;100000.13;;;13.13;73.83
72548;BME280;60570;50.848;6.776;2024-02-16T03:14:53;100005.34;;;13.14;73.86
72548;BME280;60570;50.848;6.776;2024-02-16T03:15:54;100007.63;;;13.09;74.05
72548;BME280;60570;50.848;6.776;2024-02-16T03:16:56;99999.25;;;13.09;74.05
72548;BME280;60570;50.848;6.776;2024-02-16T03:17:56;100003.31;;;13.11;73.98
72548;BME280;60570;50.848;6.776;2024-02-16T03:18:58;100004.91;;;13.12;73.95
72548;BME280;60570;50.848;6.776;2024-02-16T03:19:59;99997.78;;;13.15;74.13
72548;BME280;60570;50.848;6.776;2024-02-16T03:21:00;99993.03;;;13.15;73.47
72548;BME280;60570;50.848;6.776;2024-02-16T03:22:02;99996.97;;;13.14;73.87
72548;BME280;60570;50.848;6.776;2024-02-16T03:23:04;100003.81;;;13.17;73.87
72548;BME280;60570;50.848;6.776;2024-02-16T03:24:06;100001.41;;;13.15;73.76
72548;BME280;60570;50.848;6.776;2024-02-16T03:25:09;100008.22;;;13.18;73.75
72548;BME280;60570;50.848;6.776;2024-02-16T03:26:16;100002.56;;;13.14;73.85
72548;BME280;60570;50.848;6.776;2024-02-16T03:27:17;99999.41;;;13.16;73.79
72548;BME280;60570;50.848;6.776;2024-02-16T03:28:19;100002.13;;;13.12;73.88
72548;BME280;60570;50.848;6.776;2024-02-16T03:29:20;99996.09;;;13.10;73.98
72548;BME280;60570;50.848;6.776;2024-02-16T03:30:22;99992.16;;;13.11;74.14
72548;BME280;60570;50.848;6.776;2024-02-16T03:31:23;99991.78;;;13.13;73.98
72548;BME280;60570;50.848;6.776;2024-02-16T03:32:25;99995.72;;;13.12;74.13
72548;BME280;60570;50.848;6.776;2024-02-16T03:33:26;99996.53;;;13.12;74.11
72548;BME280;60570;50.848;6.776;2024-02-16T03:34:28;99997.34;;;13.13;73.79
72548;BME280;60570;50.848;6.776;2024-02-16T03:35:29;99981.78;;;13.12;74.15
72548;BME280;60570;50.848;6.776;2024-02-16T03:36:30;99990.50;;;13.10;74.04
72548;BME280;60570;50.848;6.776;2024-02-16T03:37:31;99996.09;;;13.10;74.06
72548;BME280;60570;50.848;6.776;2024-02-16T03:38:34;100000.50;;;13.11;74.01
72548;BME280;60570;50.848;6.776;2024-02-16T03:39:36;100003.31;;;13.11;74.07
72548;BME280;60570;50.848;6.776;2024-02-16T03:40:37;99999.31;;;13.12;74.02
72548;BME280;60570;50.848;6.776;2024-02-16T03:41:38;99994.56;;;13.13;73.87
72548;BME280;60570;50.848;6.776;2024-02-16T03:42:39;99995.28;;;13.10;74.24
72548;BME280;60570;50.848;6.776;2024-02-16T03:43:41;99995.72;;;13.12;74.01
72548;BME280;60570;50.848;6.776;2024-02-16T03:44:43;99994.50;;;13.09;73.84
72548;BME280;60570;50.848;6.776;2024-02-16T03:45:45;100003.63;;;13.10;74.09
72548;BME280;60570;50.848;6.776;2024-02-16T03:46:45;100003.63;;;13.10;74.17
72548;BME280;60570;50.848;6.776;2024-02-16T03:47:47;100001.28;;;13.12;74.00
72548;BME280;60570;50.848;6.776;2024-02-16T03:48:49;100008.06;;;13.11;73.86
72548;BME280;60570;50.848;6.776;2024-02-16T03:49:51;100000.84;;;13.10;74.16
72548;BME280;60570;50.848;6.776;2024-02-16T03:50:52;99998.16;;;13.13;74.02
72548;BME280;60570;50.848;6.776;2024-02-16T03:51:53;100003.75;;;13.13;74.04
72548;BME280;60570;50.848;6.776;2024-02-16T03:52:54;100004.09;;;13.12;73.92
72548;BME280;60570;50.848;6.776;2024-02-16T03:53:56;99994.94;;;13.11;74.02
72548;BME280;60570;50.848;6.776;2024-02-16T03:54:58;99992.94;;;13.12;74.22
72548;BME280;60570;50.848;6.776;2024-02-16T03:55:59;99994.94;;;13.11;74.21
72548;BME280;60570;50.848;6.776;2024-02-16T03:57:00;99984.56;;;13.12;74.06
72548;BME280;60570;50.848;6.776;2024-02-16T03:58:02;99987.72;;;13.10;74.16
72548;BME280;60570;50.848;6.776;2024-02-16T03:59:03;99983.78;;;13.11;74.23
72548;BME280;60570;50.848;6.776;2024-02-16T04:00:06;99987.34;;;13.12;74.02
72548;BME280;60570;50.848;6.776;2024-02-16T04:01:08;99983.34;;;13.09;74.12
72548;BME280;60570;50.848;6.776;2024-02-16T04:02:10;99984.50;;;13.08;74.14
72548;BME280;60570;50.848;6.776;2024-02-16T04:03:11;99988.81;;;13.06;74.22
72548;BME280;60570;50.848;6.776;2024-02-16T04:04:13;99984.88;;;13.07;74.20
72548;BME280;60570;50.848;6.776;2024-02-16T04:05:13;99983.22;;;13.06;74.39
72548;BME280;60570;50.848;6.776;2024-02-16T04:06:15;99974.41;;;13.04;74.24
72548;BME280;60570;50.848;6.776;2024-02-16T04:07:16;99974.09;;;13.05;74.39
72548;BME280;60570;50.848;6.776;2024-02-16T04:08:17;99985.69;;;13.07;74.41
72548;BME280;60570;50.848;6.776;2024-02-16T04:09:19;99975.75;;;13.10;74.18
72548;BME280;60570;50.848;6.776;2024-02-16T04:10:21;99989.69;;;13.10;74.09
72548;BME280;60570;50.848;6.776;2024-02-16T04:11:23;99995.66;;;13.08;74.39
72548;BME280;60570;50.848;6.776;2024-02-16T04:12:23;99987.28;;;13.08;74.21
72548;BME280;60570;50.848;6.776;2024-02-16T04:13:25;99987.72;;;13.10;74.23
72548;BME280;60570;50.848;6.776;2024-02-16T04:14:26;99994.03;;;13.07;74.20
72548;BME280;60570;50.848;6.776;2024-02-16T04:15:27;99994.03;;;13.07;74.34
72548;BME280;60570;50.848;6.776;2024-02-16T04:16:29;99995.19;;;13.06;74.41
72548;BME280;60570;50.848;6.776;2024-02-16T04:17:29;100003.56;;;13.06;74.40
72548;BME280;60570;50.848;6.776;2024-02-16T04:18:31;99993.22;;;13.07;74.50
72548;BME280;60570;50.848;6.776;2024-02-16T04:19:32;100000.69;;;13.03;74.46
72548;BME280;60570;50.848;6.776;2024-02-16T04:20:33;100002.41;;;13.07;74.61
72548;BME280;60570;50.848;6.776;2024-02-16T04:21:34;100011.94;;;13.06;74.49
72548;BME280;60570;50.848;6.776;2024-02-16T04:22:36;100014.00;;;13.09;74.38
72548;BME280;60570;50.848;6.776;2024-02-16T04:23:37;100009.22;;;13.10;74.29
72548;BME280;60570;50.848;6.776;2024-02-16T04:24:39;100030.75;;;13.09;74.31
72548;BME280;60570;50.848;6.776;2024-02-16T04:25:41;100025.94;;;13.10;74.30
72548;BME280;60570;50.848;6.776;2024-02-16T04:26:43;100019.94;;;13.08;74.49
72548;BME280;60570;50.848;6.776;2024-02-16T04:27:43;100024.78;;;13.11;74.33
72548;BME280;60570;50.848;6.776;2024-02-16T04:28:45;100025.63;;;13.11;74.46
72548;BME280;60570;50.848;6.776;2024-02-16T04:29:46;100028.41;;;13.11;74.36
72548;BME280;60570;50.848;6.776;2024-02-16T04:30:47;100031.19;;;13.11;74.47
72548;BME280;60570;50.848;6.776;2024-02-16T04:31:48;100029.63;;;13.14;74.19
72548;BME280;60570;50.848;6.776;2024-02-16T04:32:50;100033.59;;;13.13;74.63
72548;BME280;60570;50.848;6.776;2024-02-16T04:33:50;100028.03;;;13.13;74.41
72548;BME280;60570;50.848;6.776;2024-02-16T04:34:53;100026.41;;;13.12;74.14
72548;BME280;60570;50.848;6.776;2024-02-16T04:35:56;100028.75;;;13.10;74.46
72548;BME280;60570;50.848;6.776;2024-02-16T04:36:58;100028.75;;;13.10;74.75
72548;BME280;60570;50.848;6.776;2024-02-16T04:37:59;100023.97;;;13.10;74.57
72548;BME280;60570;50.848;6.776;2024-02-16T04:39:00;100028.75;;;13.10;74.43
72548;BME280;60570;50.848;6.776;2024-02-16T04:40:01;100031.91;;;13.08;74.54
72548;BME280;60570;50.848;6.776;2024-02-16T04:41:06;100025.88;;;13.06;74.61
72548;BME280;60570;50.848;6.776;2024-02-16T04:42:07;100023.91;;;13.07;74.38
72548;BME280;60570;50.848;6.776;2024-02-16T04:43:08;100036.31;;;13.09;74.52
72548;BME280;60570;50.848;6.776;2024-02-16T04:44:09;100025.16;;;13.09;74.46
72548;BME280;60570;50.848;6.776;2024-02-16T04:45:11;100027.13;;;13.09;74.44
72548;BME280;60570;50.848;6.776;2024-02-16T04:46:14;100021.94;;;13.07;74.74
72548;BME280;60570;50.848;6.776;2024-02-16T04:47:14;100027.06;;;13.05;74.56
72548;BME280;60570;50.848;6.776;2024-02-16T04:48:17;100025.88;;;13.06;74.69
72548;BME280;60570;50.848;6.776;2024-02-16T04:49:18;100032.66;;;13.05;74.66
72548;BME280;60570;50.848;6.776;2024-02-16T04:50:19;100033.78;;;13.04;74.67
72548;BME280;60570;50.848;6.776;2024-02-16T04:51:21;100027.84;;;13.06;74.60
72548;BME280;60570;50.848;6.776;2024-02-16T04:52:22;100029.47;;;13.07;74.68
72548;BME280;60570;50.848;6.776;2024-02-16T04:53:23;100031.09;;;13.08;74.53
72548;BME280;60570;50.848;6.776;2024-02-16T04:54:25;100036.75;;;13.11;74.49
72548;BME280;60570;50.848;6.776;2024-02-16T04:55:26;100038.75;;;13.11;74.52
72548;BME280;60570;50.848;6.776;2024-02-16T04:56:29;100036.66;;;13.08;74.63
72548;BME280;60570;50.848;6.776;2024-02-16T04:57:29;100041.09;;;13.09;74.57
72548;BME280;60570;50.848;6.776;2024-02-16T04:58:30;100041.91;;;13.09;74.52
72548;BME280;60570;50.848;6.776;2024-02-16T04:59:32;100041.00;;;13.05;74.68
72548;BME280;60570;50.848;6.776;2024-02-16T05:00:33;100041.00;;;13.05;74.52
72548;BME280;60570;50.848;6.776;2024-02-16T05:01:34;100042.25;;;13.08;74.64
72548;BME280;60570;50.848;6.776;2024-02-16T05:02:35;100039.00;;;13.06;74.63
72548;BME280;60570;50.848;6.776;2024-02-16T05:03:37;100033.88;;;13.08;74.62
72548;BME280;60570;50.848;6.776;2024-02-16T05:04:40;100035.06;;;13.07;74.57
72548;BME280;60570;50.848;6.776;2024-02-16T05:05:42;100035.88;;;13.07;74.61
72548;BME280;60570;50.848;6.776;2024-02-16T05:06:43;100038.28;;;13.09;74.53
72548;BME280;60570;50.848;6.776;2024-02-16T05:07:47;100039.91;;;13.10;74.50
72548;BME280;60570;50.848;6.776;2024-02-16T05:08:48;100037.47;;;13.08;74.52
72548;BME280;60570;50.848;6.776;2024-02-16T05:09:50;100035.44;;;13.05;74.65
72548;BME280;60570;50.848;6.776;2024-02-16T05:10:56;100040.25;;;13.08;74.54
72548;BME280;60570;50.848;6.776;2024-02-16T05:11:59;100040.25;;;13.08;74.32
72548;BME280;60570;50.848;6.776;2024-02-16T05:13:00;100037.47;;;13.08;74.62
72548;BME280;60570;50.848;6.776;2024-02-16T05:14:01;100038.22;;;13.05;74.56
72548;BME280;60570;50.848;6.776;2024-02-16T05:15:02;100037.03;;;13.06;74.59
72548;BME280;60570;50.848;6.776;2024-02-16T05:16:08;100039.81;;;13.06;74.71
72548;BME280;60570;50.848;6.776;2024-02-16T05:17:08;100037.84;;;13.07;74.19
72548;BME280;60570;50.848;6.776;2024-02-16T05:18:10;100040.63;;;13.07;74.65
72548;BME280;60570;50.848;6.776;2024-02-16T05:19:12;100035.88;;;13.07;74.66
72548;BME280;60570;50.848;6.776;2024-02-16T05:20:14;100037.84;;;13.07;74.63
72548;BME280;60570;50.848;6.776;2024-02-16T05:21:16;100031.91;;;13.08;74.69
72548;BME280;60570;50.848;6.776;2024-02-16T05:22:17;100035.06;;;13.07;74.83